createdAt,value
2022-11-29T00:00:11.266Z,13
2022-11-29T00:01:11.247Z,14
2022-11-29T00:02:11.515Z,15
2022-11-29T00:03:11.331Z,13
2022-11-29T00:05:11.263Z,15
2022-11-29T00:06:11.269Z,14
2022-11-29T00:07:11.270Z,14
2022-11-29T00:08:11.260Z,14
2022-11-29T00:09:11.258Z,13
2022-11-29T00:11:11.251Z,15
2022-11-29T00:12:11.249Z,13
2022-11-29T00:13:11.258Z,13
2022-11-29T00:14:11.292Z,15
2022-11-29T00:15:11.256Z,14
2022-11-29T00:16:11.341Z,15
2022-11-29T00:17:11.262Z,13
2022-11-29T00:18:11.268Z,14
2022-11-29T00:19:11.250Z,15
2022-11-29T00:20:11.275Z,15
2022-11-29T00:22:11.248Z,14
2022-11-29T00:23:11.260Z,15
2022-11-29T00:24:11.259Z,14
2022-11-29T00:25:11.275Z,14
2022-11-29T00:26:11.257Z,14
2022-11-29T00:27:11.259Z,15
2022-11-29T00:28:11.252Z,15
2022-11-29T00:29:11.271Z,15
2022-11-29T00:30:11.302Z,15
2022-11-29T00:31:11.318Z,16
2022-11-29T00:32:11.281Z,14
2022-11-29T00:33:11.272Z,15
2022-11-29T00:34:11.667Z,15
2022-11-29T00:35:11.273Z,15
2022-11-29T00:36:11.274Z,14
2022-11-29T00:37:11.282Z,15
2022-11-29T00:38:11.257Z,15
2022-11-29T00:39:11.265Z,14
2022-11-29T00:40:11.288Z,13
2022-11-29T00:41:11.289Z,15
2022-11-29T00:42:11.273Z,14
2022-11-29T00:43:11.260Z,15
2022-11-29T00:44:16.776Z,12
2022-11-29T00:45:11.303Z,14
2022-11-29T00:46:11.331Z,14
2022-11-29T00:47:11.252Z,15
2022-11-29T00:48:11.274Z,13
2022-11-29T00:49:11.285Z,15
2022-11-29T00:50:11.260Z,15
2022-11-29T00:51:11.258Z,15
2022-11-29T00:52:11.290Z,15
2022-11-29T00:53:11.303Z,14
2022-11-29T00:54:11.265Z,14
2022-11-29T00:55:11.267Z,14
2022-11-29T00:56:11.254Z,14
2022-11-29T00:57:11.320Z,14
2022-11-29T00:58:11.266Z,13
2022-11-29T00:59:11.275Z,14
2022-11-29T01:00:11.277Z,14
2022-11-29T01:01:11.338Z,14
2022-11-29T01:02:11.394Z,13
2022-11-29T01:03:11.263Z,15
2022-11-29T01:04:11.269Z,14
2022-11-29T01:05:11.268Z,14
2022-11-29T01:06:11.279Z,14
2022-11-29T01:07:11.286Z,15
2022-11-29T01:08:11.288Z,14
2022-11-29T01:09:11.282Z,13
2022-11-29T01:10:11.282Z,14
2022-11-29T01:11:11.282Z,14
2022-11-29T01:12:11.282Z,15
2022-11-29T01:13:11.309Z,15
2022-11-29T01:14:11.335Z,14
2022-11-29T01:15:11.288Z,14
2022-11-29T01:16:11.319Z,15
2022-11-29T01:17:11.274Z,15
2022-11-29T01:18:11.290Z,14
2022-11-29T01:19:11.276Z,15
2022-11-29T01:20:11.271Z,14
2022-11-29T01:22:11.280Z,14
2022-11-29T01:23:11.271Z,15
2022-11-29T01:24:11.276Z,16
2022-11-29T01:25:11.273Z,15
2022-11-29T01:26:11.268Z,14
2022-11-29T01:27:11.293Z,15
2022-11-29T01:28:11.290Z,14
2022-11-29T01:29:11.291Z,15
2022-11-29T01:30:11.290Z,15
2022-11-29T01:31:11.421Z,15
2022-11-29T01:32:11.291Z,15
2022-11-29T01:33:11.292Z,15
2022-11-29T01:34:11.280Z,14
2022-11-29T01:35:11.275Z,15
2022-11-29T01:36:11.279Z,14
2022-11-29T01:37:11.268Z,14
2022-11-29T01:38:11.281Z,15
2022-11-29T01:39:11.311Z,15
2022-11-29T01:40:11.290Z,16
2022-11-29T01:41:11.276Z,16
2022-11-29T01:42:11.274Z,16
2022-11-29T01:43:11.274Z,16
2022-11-29T01:44:11.281Z,17
2022-11-29T01:45:11.291Z,16
2022-11-29T01:46:11.397Z,17
2022-11-29T01:47:11.331Z,16
2022-11-29T01:48:11.279Z,17
2022-11-29T01:49:11.277Z,16
2022-11-29T01:50:11.303Z,17
2022-11-29T01:51:11.302Z,16
2022-11-29T01:52:11.292Z,16
2022-11-29T01:53:11.300Z,18
2022-11-29T01:54:11.285Z,17
2022-11-29T01:55:11.284Z,18
2022-11-29T01:56:11.392Z,16
2022-11-29T01:57:11.293Z,17
2022-11-29T01:58:11.282Z,16
2022-11-29T01:59:11.286Z,17
2022-11-29T02:00:11.306Z,18
2022-11-29T02:01:11.323Z,18
2022-11-29T02:02:11.326Z,16
2022-11-29T02:03:11.289Z,17
2022-11-29T02:04:11.304Z,17
2022-11-29T02:05:11.286Z,18
2022-11-29T02:06:11.277Z,18
2022-11-29T02:07:11.297Z,18
2022-11-29T02:08:11.310Z,17
2022-11-29T02:10:11.286Z,18
2022-11-29T02:11:11.306Z,18
2022-11-29T02:12:11.316Z,19
2022-11-29T02:13:11.291Z,16
2022-11-29T02:14:11.284Z,18
2022-11-29T02:15:11.333Z,16
2022-11-29T02:16:11.355Z,17
2022-11-29T02:17:11.298Z,17
2022-11-29T02:18:11.312Z,17
2022-11-29T02:19:11.279Z,17
2022-11-29T02:20:11.316Z,15
2022-11-29T02:21:11.307Z,18
2022-11-29T02:22:11.288Z,18
2022-11-29T02:23:11.292Z,17
2022-11-29T02:24:11.300Z,18
2022-11-29T02:25:11.319Z,17
2022-11-29T02:26:11.297Z,17
2022-11-29T02:27:11.307Z,17
2022-11-29T02:28:11.309Z,18
2022-11-29T02:29:11.290Z,17
2022-11-29T02:30:11.319Z,17
2022-11-29T02:31:11.379Z,17
2022-11-29T02:32:11.289Z,18
2022-11-29T02:33:11.313Z,19
2022-11-29T02:34:11.309Z,17
2022-11-29T02:35:11.301Z,18
2022-11-29T02:36:11.294Z,16
2022-11-29T02:37:11.822Z,17
2022-11-29T02:38:11.290Z,19
2022-11-29T02:40:11.297Z,18
2022-11-29T02:41:11.304Z,17
2022-11-29T02:42:11.294Z,18
2022-11-29T02:43:11.295Z,16
2022-11-29T02:44:11.295Z,18
2022-11-29T02:45:11.295Z,17
2022-11-29T02:46:11.768Z,18
2022-11-29T02:47:11.306Z,18
2022-11-29T02:48:11.322Z,19
2022-11-29T02:49:11.340Z,19
2022-11-29T02:50:11.311Z,18
2022-11-29T02:51:11.313Z,17
2022-11-29T02:52:11.313Z,17
2022-11-29T02:53:11.325Z,17
2022-11-29T02:54:11.362Z,18
2022-11-29T02:55:11.329Z,16
2022-11-29T02:56:11.314Z,16
2022-11-29T02:58:11.314Z,17
2022-11-29T02:59:11.295Z,17
2022-11-29T03:00:11.293Z,16
2022-11-29T03:01:11.344Z,16
2022-11-29T03:02:11.383Z,16
2022-11-29T03:03:11.301Z,15
2022-11-29T03:04:11.298Z,15
2022-11-29T03:05:11.330Z,16
2022-11-29T03:06:11.316Z,18
2022-11-29T03:07:11.304Z,17
2022-11-29T03:08:11.320Z,17
2022-11-29T03:09:11.317Z,16
2022-11-29T03:10:11.302Z,16
2022-11-29T03:11:11.309Z,16
2022-11-29T03:12:11.318Z,18
2022-11-29T03:13:11.329Z,17
2022-11-29T03:14:11.326Z,16
2022-11-29T03:15:11.324Z,16
2022-11-29T03:16:11.381Z,15
2022-11-29T03:17:11.331Z,15
2022-11-29T03:18:11.333Z,16
2022-11-29T03:19:11.327Z,15
2022-11-29T03:20:11.349Z,16
2022-11-29T03:21:11.320Z,16
2022-11-29T03:22:11.326Z,16
2022-11-29T03:23:11.308Z,16
2022-11-29T03:24:11.317Z,15
2022-11-29T03:25:11.318Z,16
2022-11-29T03:26:11.303Z,17
2022-11-29T03:27:11.306Z,15
2022-11-29T03:28:11.311Z,16
2022-11-29T03:29:11.299Z,15
2022-11-29T03:30:11.305Z,14
2022-11-29T03:31:11.328Z,15
2022-11-29T03:32:11.305Z,17
2022-11-29T03:33:11.313Z,15
2022-11-29T03:34:11.302Z,15
2022-11-29T03:35:11.331Z,15
2022-11-29T03:36:11.324Z,17
2022-11-29T03:37:11.309Z,16
2022-11-29T03:38:11.314Z,15
2022-11-29T03:39:11.321Z,16
2022-11-29T03:40:11.305Z,15
2022-11-29T03:41:11.310Z,15
2022-11-29T03:42:11.307Z,15
2022-11-29T03:43:11.339Z,15
2022-11-29T03:44:11.312Z,15
2022-11-29T03:45:11.319Z,15
2022-11-29T03:46:11.386Z,14
2022-11-29T03:47:11.314Z,14
2022-11-29T03:48:11.315Z,17
2022-11-29T03:49:11.313Z,14
2022-11-29T03:50:11.310Z,14
2022-11-29T03:51:11.342Z,15
2022-11-29T03:52:11.344Z,15
2022-11-29T03:53:11.326Z,14
2022-11-29T03:54:11.328Z,14
2022-11-29T03:55:11.318Z,14
2022-11-29T03:56:11.334Z,14
2022-11-29T03:57:11.318Z,15
2022-11-29T03:58:11.359Z,14
2022-11-29T03:59:11.340Z,14
2022-11-29T04:00:11.339Z,15
2022-11-29T04:01:11.396Z,14
2022-11-29T04:02:11.315Z,14
2022-11-29T04:03:11.326Z,15
2022-11-29T04:04:11.330Z,13
2022-11-29T04:05:11.330Z,14
2022-11-29T04:06:11.320Z,14
2022-11-29T04:07:11.310Z,13
2022-11-29T04:08:11.335Z,15
2022-11-29T04:09:11.395Z,13
2022-11-29T04:10:11.338Z,13
2022-11-29T04:11:11.333Z,14
2022-11-29T04:12:11.325Z,15
2022-11-29T04:13:11.363Z,15
2022-11-29T04:14:11.403Z,15
2022-11-29T04:15:15.337Z,13
2022-11-29T04:16:11.438Z,12
2022-11-29T04:17:11.605Z,13
2022-11-29T04:18:11.337Z,13
2022-11-29T04:19:11.340Z,13
2022-11-29T04:20:11.331Z,13
2022-11-29T04:21:11.318Z,14
2022-11-29T04:22:11.372Z,15
2022-11-29T04:23:11.343Z,13
2022-11-29T04:24:11.332Z,13
2022-11-29T04:25:11.319Z,12
2022-11-29T04:26:11.353Z,14
2022-11-29T04:27:11.327Z,13
2022-11-29T04:28:11.324Z,13
2022-11-29T04:29:11.338Z,13
2022-11-29T04:30:11.348Z,12
2022-11-29T04:31:11.409Z,12
2022-11-29T04:32:11.341Z,12
2022-11-29T04:33:11.339Z,12
2022-11-29T04:34:11.340Z,12
2022-11-29T04:35:11.335Z,12
2022-11-29T04:36:11.339Z,12
2022-11-29T04:37:11.340Z,12
2022-11-29T04:38:11.343Z,12
2022-11-29T04:39:11.341Z,12
2022-11-29T04:40:11.339Z,11
2022-11-29T04:41:11.337Z,11
2022-11-29T04:42:11.323Z,12
2022-11-29T04:43:11.336Z,11
2022-11-29T04:44:11.333Z,11
2022-11-29T04:45:11.341Z,11
2022-11-29T04:46:11.373Z,11
2022-11-29T04:47:11.339Z,10
2022-11-29T04:48:11.347Z,10
2022-11-29T04:49:11.352Z,10
2022-11-29T04:50:11.351Z,9
2022-11-29T04:51:11.329Z,10
2022-11-29T04:52:11.326Z,11
2022-11-29T04:53:11.361Z,9
2022-11-29T04:54:11.345Z,11
2022-11-29T04:55:11.393Z,10
2022-11-29T04:56:11.338Z,11
2022-11-29T04:57:11.350Z,8
2022-11-29T04:58:11.351Z,10
2022-11-29T04:59:11.338Z,9
2022-11-29T05:00:11.359Z,10
2022-11-29T05:01:11.409Z,10
2022-11-29T05:02:11.356Z,9
2022-11-29T05:03:11.336Z,9
2022-11-29T05:04:11.344Z,9
2022-11-29T05:05:11.335Z,9
2022-11-29T05:07:11.359Z,8
2022-11-29T05:08:11.342Z,9
2022-11-29T05:10:11.343Z,9
2022-11-29T05:11:11.350Z,9
2022-11-29T05:12:11.352Z,10
2022-11-29T05:13:11.332Z,8
2022-11-29T05:14:11.356Z,9
2022-11-29T05:16:11.470Z,7
2022-11-29T05:17:11.345Z,7
2022-11-29T05:18:11.355Z,7
2022-11-29T05:19:11.366Z,7
2022-11-29T05:20:11.355Z,9
2022-11-29T05:21:11.360Z,7
2022-11-29T05:22:11.352Z,8
2022-11-29T05:23:11.360Z,8
2022-11-29T05:24:11.373Z,8
2022-11-29T05:25:11.367Z,8
2022-11-29T05:26:11.355Z,8
2022-11-29T05:27:11.358Z,9
2022-11-29T05:28:11.330Z,8
2022-11-29T05:29:11.414Z,8
2022-11-29T05:30:11.354Z,9
2022-11-29T05:31:11.434Z,8
2022-11-29T05:32:11.341Z,7
2022-11-29T05:33:11.362Z,7
2022-11-29T05:34:11.355Z,9
2022-11-29T05:35:11.347Z,8
2022-11-29T05:36:11.341Z,8
2022-11-29T05:37:11.346Z,9
2022-11-29T05:38:11.350Z,8
2022-11-29T05:39:11.349Z,9
2022-11-29T05:40:11.364Z,8
2022-11-29T05:41:11.349Z,9
2022-11-29T05:42:11.361Z,10
2022-11-29T05:43:11.348Z,9
2022-11-29T05:44:11.345Z,10
2022-11-29T05:45:11.352Z,10
2022-11-29T05:46:11.395Z,10
2022-11-29T05:47:11.358Z,8
2022-11-29T05:48:11.364Z,10
2022-11-29T05:49:11.345Z,9
2022-11-29T05:50:11.356Z,10
2022-11-29T05:51:11.345Z,10
2022-11-29T05:52:11.355Z,12
2022-11-29T05:53:11.358Z,11
2022-11-29T05:54:11.366Z,11
2022-11-29T05:55:11.391Z,10
2022-11-29T05:56:11.356Z,11
2022-11-29T05:57:11.368Z,12
2022-11-29T05:58:11.349Z,12
2022-11-29T05:59:11.347Z,12
2022-11-29T06:00:11.365Z,13
2022-11-29T06:01:11.371Z,14
2022-11-29T06:02:11.444Z,12
2022-11-29T06:03:11.428Z,11
2022-11-29T06:04:14.754Z,10
2022-11-29T06:05:11.357Z,13
2022-11-29T06:06:11.363Z,13
2022-11-29T06:07:11.362Z,13
2022-11-29T06:08:11.380Z,14
2022-11-29T06:09:11.393Z,12
2022-11-29T06:10:11.363Z,12
2022-11-29T06:11:11.359Z,11
2022-11-29T06:12:11.364Z,13
2022-11-29T06:13:11.368Z,12
2022-11-29T06:14:11.368Z,11
2022-11-29T06:15:11.350Z,13
2022-11-29T06:16:11.421Z,12
2022-11-29T06:17:11.382Z,12
2022-11-29T06:18:11.361Z,14
2022-11-29T06:19:11.366Z,13
2022-11-29T06:20:11.420Z,12
2022-11-29T06:21:11.387Z,12
2022-11-29T06:22:11.368Z,13
2022-11-29T06:23:11.360Z,13
2022-11-29T06:24:11.355Z,13
2022-11-29T06:25:11.421Z,13
2022-11-29T06:26:11.393Z,12
2022-11-29T06:27:11.415Z,12
2022-11-29T06:28:11.385Z,13
2022-11-29T06:29:11.386Z,11
2022-11-29T06:30:11.396Z,11
2022-11-29T06:31:11.480Z,13
2022-11-29T06:33:11.383Z,13
2022-11-29T06:34:11.409Z,14
2022-11-29T06:35:11.369Z,12
2022-11-29T06:36:11.384Z,12
2022-11-29T06:37:11.364Z,12
2022-11-29T06:39:11.404Z,13
2022-11-29T06:40:11.373Z,12
2022-11-29T06:41:11.394Z,13
2022-11-29T06:42:11.391Z,14
2022-11-29T06:43:11.372Z,13
2022-11-29T06:44:11.380Z,13
2022-11-29T06:45:11.396Z,13
2022-11-29T06:46:11.464Z,12
2022-11-29T06:47:11.426Z,12
2022-11-29T06:48:11.372Z,13
2022-11-29T06:49:11.375Z,13
2022-11-29T06:50:11.369Z,13
2022-11-29T06:51:11.391Z,4
2022-11-29T06:52:12.177Z,5
2022-11-29T06:53:11.389Z,9
2022-11-29T06:54:11.364Z,13
2022-11-29T06:55:11.381Z,13
2022-11-29T06:56:11.382Z,13
2022-11-29T06:57:11.399Z,13
2022-11-29T06:58:11.394Z,10
2022-11-29T06:59:11.373Z,12
2022-11-29T07:00:11.381Z,12
2022-11-29T07:01:11.463Z,11
2022-11-29T07:02:11.492Z,12
2022-11-29T07:03:11.415Z,12
2022-11-29T07:04:11.379Z,12
2022-11-29T07:05:11.370Z,13
2022-11-29T07:06:11.369Z,12
2022-11-29T07:07:11.385Z,11
2022-11-29T07:08:11.367Z,12
2022-11-29T07:09:11.370Z,13
2022-11-29T07:10:14.838Z,13
2022-11-29T07:11:11.370Z,13
2022-11-29T07:12:11.383Z,11
2022-11-29T07:13:11.388Z,13
2022-11-29T07:14:11.384Z,12
2022-11-29T07:15:11.388Z,13
2022-11-29T07:16:11.434Z,14
2022-11-29T07:17:11.432Z,13
2022-11-29T07:18:11.448Z,11
2022-11-29T07:19:11.375Z,12
2022-11-29T07:20:11.383Z,12
2022-11-29T07:21:11.380Z,12
2022-11-29T07:22:11.380Z,13
2022-11-29T07:23:11.387Z,13
2022-11-29T07:24:11.389Z,11
2022-11-29T07:25:11.367Z,12
2022-11-29T07:26:11.378Z,12
2022-11-29T07:27:11.373Z,12
2022-11-29T07:28:11.405Z,11
2022-11-29T07:29:11.380Z,13
2022-11-29T07:30:11.370Z,11
2022-11-29T07:31:11.411Z,12
2022-11-29T07:32:11.375Z,13
2022-11-29T07:33:11.375Z,12
2022-11-29T07:34:11.375Z,13
2022-11-29T07:35:11.417Z,12
2022-11-29T07:36:11.400Z,12
2022-11-29T07:37:11.397Z,11
2022-11-29T07:38:11.390Z,11
2022-11-29T07:39:11.393Z,11
2022-11-29T07:40:11.384Z,12
2022-11-29T07:41:11.383Z,12
2022-11-29T07:42:11.394Z,11
2022-11-29T07:43:11.401Z,12
2022-11-29T07:44:11.388Z,12
2022-11-29T07:45:11.385Z,11
2022-11-29T07:46:11.388Z,12
2022-11-29T07:47:11.435Z,13
2022-11-29T07:48:11.389Z,13
2022-11-29T07:49:11.379Z,12
2022-11-29T07:50:11.390Z,11
2022-11-29T07:51:11.395Z,11
2022-11-29T07:52:17.871Z,11
2022-11-29T07:53:11.386Z,12
2022-11-29T07:54:11.476Z,11
2022-11-29T07:55:17.099Z,12
2022-11-29T07:56:11.390Z,11
2022-11-29T07:57:11.395Z,11
2022-11-29T07:58:11.392Z,11
2022-11-29T07:59:11.419Z,11
2022-11-29T08:00:11.396Z,11
2022-11-29T08:01:11.446Z,11
2022-11-29T08:02:11.931Z,12
2022-11-29T08:04:11.399Z,12
2022-11-29T08:05:11.405Z,10
2022-11-29T08:06:11.407Z,10
2022-11-29T08:07:11.416Z,10
2022-11-29T08:08:11.391Z,9
2022-11-29T08:09:11.403Z,9
2022-11-29T08:10:11.398Z,9
2022-11-29T08:11:11.466Z,7
2022-11-29T08:12:11.406Z,4
2022-11-29T08:13:11.399Z,4
2022-11-29T08:14:11.390Z,4
2022-11-29T08:15:11.390Z,4
2022-11-29T08:16:11.412Z,5
2022-11-29T08:17:11.412Z,5
2022-11-29T08:18:11.406Z,5
2022-11-29T08:19:11.394Z,5
2022-11-29T08:20:11.390Z,6
2022-11-29T08:21:11.409Z,6
2022-11-29T08:22:11.393Z,8
2022-11-29T08:23:11.391Z,7
2022-11-29T08:24:11.392Z,8
2022-11-29T08:25:11.401Z,8
2022-11-29T08:26:11.513Z,9
2022-11-29T08:27:11.399Z,8
2022-11-29T08:28:11.404Z,8
2022-11-29T08:29:11.403Z,8
2022-11-29T08:30:11.446Z,8
2022-11-29T08:31:11.541Z,9
2022-11-29T08:32:11.405Z,8
2022-11-29T08:33:11.401Z,8
2022-11-29T08:34:11.395Z,8
2022-11-29T08:35:11.401Z,9
2022-11-29T08:36:11.411Z,9
2022-11-29T08:37:11.393Z,8
2022-11-29T08:38:11.407Z,9
2022-11-29T08:39:11.404Z,9
2022-11-29T08:40:11.418Z,8
2022-11-29T08:41:11.414Z,9
2022-11-29T08:42:11.408Z,8
2022-11-29T08:43:11.450Z,8
2022-11-29T08:44:11.412Z,9
2022-11-29T08:45:11.416Z,9
2022-11-29T08:46:17.953Z,10
2022-11-29T08:47:11.433Z,9
2022-11-29T08:48:11.494Z,9
2022-11-29T08:49:11.425Z,8
2022-11-29T08:50:11.410Z,9
2022-11-29T08:51:11.421Z,9
2022-11-29T08:53:11.426Z,9
2022-11-29T08:55:11.439Z,10
2022-11-29T08:56:49.348Z,9
2022-11-29T08:57:38.605Z,10
2022-11-29T08:58:11.398Z,9
2022-11-29T08:59:11.418Z,9
2022-11-29T09:00:11.431Z,10
2022-11-29T09:01:11.539Z,10
2022-11-29T09:02:11.429Z,11
2022-11-29T09:03:11.403Z,11
2022-11-29T09:04:11.410Z,10
2022-11-29T09:05:11.419Z,9
2022-11-29T09:06:12.757Z,9
2022-11-29T09:07:11.402Z,8
2022-11-29T09:08:11.406Z,9
2022-11-29T09:09:11.405Z,10
2022-11-29T09:10:11.425Z,9
2022-11-29T09:11:11.466Z,11
2022-11-29T09:12:11.467Z,10
2022-11-29T09:13:11.416Z,9
2022-11-29T09:14:11.409Z,10
2022-11-29T09:15:11.398Z,9
2022-11-29T09:16:11.472Z,9
2022-11-29T09:17:11.433Z,10
2022-11-29T09:18:11.425Z,10
2022-11-29T09:19:11.414Z,10
2022-11-29T09:20:11.444Z,9
2022-11-29T09:21:11.423Z,10
2022-11-29T09:22:11.423Z,10
2022-11-29T09:23:11.410Z,9
2022-11-29T09:24:11.414Z,10
2022-11-29T09:25:11.440Z,9
2022-11-29T09:26:11.421Z,10
2022-11-29T09:27:11.428Z,9
2022-11-29T09:28:11.432Z,11
2022-11-29T09:29:11.428Z,10
2022-11-29T09:30:11.424Z,10
2022-11-29T09:31:11.429Z,11
2022-11-29T09:32:11.452Z,10
2022-11-29T09:33:11.431Z,11
2022-11-29T09:34:11.465Z,11
2022-11-29T09:35:11.427Z,11
2022-11-29T09:36:11.432Z,10
2022-11-29T09:37:11.426Z,9
2022-11-29T09:38:11.427Z,11
2022-11-29T09:39:11.448Z,10
2022-11-29T09:40:11.440Z,10
2022-11-29T09:41:11.426Z,9
2022-11-29T09:42:11.422Z,11
2022-11-29T09:43:11.431Z,11
2022-11-29T09:44:11.427Z,11
2022-11-29T09:45:11.424Z,11
2022-11-29T09:46:11.474Z,12
2022-11-29T09:47:11.430Z,13
2022-11-29T09:48:11.432Z,11
2022-11-29T09:49:11.439Z,12
2022-11-29T09:50:11.443Z,12
2022-11-29T09:51:11.491Z,11
2022-11-29T09:52:11.436Z,11
2022-11-29T09:53:11.434Z,12
2022-11-29T09:54:11.445Z,12
2022-11-29T09:55:11.438Z,14
2022-11-29T09:56:11.456Z,13
2022-11-29T09:57:11.432Z,14
2022-11-29T09:58:11.453Z,13
2022-11-29T09:59:11.453Z,15
2022-11-29T10:00:11.426Z,12
2022-11-29T10:01:11.479Z,14
2022-11-29T10:02:11.526Z,14
2022-11-29T10:03:11.476Z,15
2022-11-29T10:04:11.438Z,14
2022-11-29T10:05:11.430Z,13
2022-11-29T10:06:11.465Z,14
2022-11-29T10:08:11.457Z,14
2022-11-29T10:09:11.478Z,14
2022-11-29T10:10:11.475Z,14
2022-11-29T10:11:11.460Z,15
2022-11-29T10:12:11.461Z,16
2022-11-29T10:13:11.434Z,15
2022-11-29T10:14:11.450Z,15
2022-11-29T10:15:11.453Z,16
2022-11-29T10:16:11.452Z,15
2022-11-29T10:17:11.425Z,15
2022-11-29T10:18:11.453Z,13
2022-11-29T10:19:11.436Z,15
2022-11-29T10:20:11.440Z,14
2022-11-29T10:21:11.433Z,14
2022-11-29T10:22:11.444Z,15
2022-11-29T10:23:11.437Z,15
2022-11-29T10:24:11.450Z,14
2022-11-29T10:25:11.498Z,15
2022-11-29T10:26:11.473Z,15
2022-11-29T10:27:11.433Z,14
2022-11-29T10:28:11.445Z,15
2022-11-29T10:29:11.435Z,14
2022-11-29T10:30:11.432Z,14
2022-11-29T10:31:11.503Z,16
2022-11-29T10:32:11.443Z,15
2022-11-29T10:33:11.466Z,16
2022-11-29T10:34:11.489Z,16
2022-11-29T10:35:11.476Z,16
2022-11-29T10:36:11.455Z,16
2022-11-29T10:37:11.454Z,17
2022-11-29T10:38:30.356Z,15
2022-11-29T10:39:14.409Z,16
2022-11-29T10:40:11.441Z,15
2022-11-29T10:41:11.460Z,15
2022-11-29T10:42:11.466Z,15
2022-11-29T10:43:11.452Z,15
2022-11-29T10:44:11.464Z,15
2022-11-29T10:45:11.469Z,15
2022-11-29T10:46:11.509Z,16
2022-11-29T10:47:11.467Z,15
2022-11-29T10:48:11.445Z,15
2022-11-29T10:49:11.440Z,15
2022-11-29T10:50:11.452Z,15
2022-11-29T10:51:11.481Z,15
2022-11-29T10:52:11.494Z,15
2022-11-29T10:53:11.452Z,16
2022-11-29T10:54:11.454Z,16
2022-11-29T10:55:11.474Z,16
2022-11-29T10:56:11.690Z,15
2022-11-29T10:57:11.457Z,16
2022-11-29T10:58:11.463Z,17
2022-11-29T10:59:11.459Z,16
2022-11-29T11:01:11.470Z,16
2022-11-29T11:02:11.439Z,16
2022-11-29T11:03:11.482Z,15
2022-11-29T11:04:11.518Z,15
2022-11-29T11:05:11.536Z,15
2022-11-29T11:06:11.481Z,15
2022-11-29T11:07:11.456Z,16
2022-11-29T11:08:11.457Z,16
2022-11-29T11:09:11.472Z,16
2022-11-29T11:10:11.487Z,16
2022-11-29T11:11:11.477Z,16
2022-11-29T11:12:11.489Z,16
2022-11-29T11:13:11.472Z,16
2022-11-29T11:14:11.468Z,15
2022-11-29T11:15:11.468Z,15
2022-11-29T11:16:11.473Z,16
2022-11-29T11:17:11.524Z,15
2022-11-29T11:18:11.473Z,15
2022-11-29T11:19:11.502Z,15
2022-11-29T11:20:11.468Z,16
2022-11-29T11:21:11.459Z,16
2022-11-29T11:22:11.476Z,15
2022-11-29T11:23:11.466Z,16
2022-11-29T11:24:11.458Z,16
2022-11-29T11:25:11.450Z,15
2022-11-29T11:26:11.471Z,16
2022-11-29T11:27:11.460Z,17
2022-11-29T11:28:11.453Z,19
2022-11-29T11:29:11.476Z,16
2022-11-29T11:30:11.455Z,16
2022-11-29T11:31:11.520Z,17
2022-11-29T11:32:11.461Z,14
2022-11-29T11:33:11.508Z,18
2022-11-29T11:34:11.504Z,15
2022-11-29T11:35:15.593Z,16
2022-11-29T11:36:11.506Z,15
2022-11-29T11:37:11.464Z,15
2022-11-29T11:38:11.461Z,16
2022-11-29T11:39:11.471Z,16
2022-11-29T11:40:11.517Z,16
2022-11-29T11:41:11.483Z,15
2022-11-29T11:42:11.469Z,15
2022-11-29T11:43:11.470Z,14
2022-11-29T11:44:15.268Z,15
2022-11-29T11:45:11.459Z,16
2022-11-29T11:46:15.216Z,16
2022-11-29T11:47:11.496Z,15
2022-11-29T11:48:11.465Z,15
2022-11-29T11:49:11.467Z,16
2022-11-29T11:50:11.501Z,14
2022-11-29T11:51:11.485Z,16
2022-11-29T11:52:11.488Z,15
2022-11-29T11:53:11.478Z,16
2022-11-29T11:54:11.482Z,15
2022-11-29T11:55:11.525Z,14
2022-11-29T11:56:11.486Z,15
2022-11-29T11:57:11.469Z,14
2022-11-29T11:58:11.462Z,14
2022-11-29T11:59:11.456Z,16
2022-11-29T12:00:11.482Z,14
2022-11-29T12:01:11.484Z,14
2022-11-29T12:02:11.546Z,14
2022-11-29T12:03:11.652Z,15
2022-11-29T12:04:11.495Z,14
2022-11-29T12:05:11.528Z,14
2022-11-29T12:06:11.495Z,14
2022-11-29T12:07:11.516Z,14
2022-11-29T12:08:11.587Z,15
2022-11-29T12:09:11.468Z,14
2022-11-29T12:10:11.492Z,15
2022-11-29T12:12:11.487Z,15
2022-11-29T12:13:11.474Z,16
2022-11-29T12:14:11.476Z,16
2022-11-29T12:15:11.466Z,15
2022-11-29T12:16:11.493Z,14
2022-11-29T12:17:14.331Z,16
2022-11-29T12:18:11.481Z,14
2022-11-29T12:19:11.480Z,14
2022-11-29T12:20:11.590Z,14
2022-11-29T12:21:11.490Z,15
2022-11-29T12:22:11.490Z,14
2022-11-29T12:23:11.500Z,15
2022-11-29T12:24:11.512Z,14
2022-11-29T12:25:11.467Z,14
2022-11-29T12:26:13.691Z,14
2022-11-29T12:27:11.532Z,15
2022-11-29T12:28:12.027Z,14
2022-11-29T12:29:11.521Z,12
2022-11-29T12:30:11.485Z,14
2022-11-29T12:31:11.576Z,15
2022-11-29T12:32:11.494Z,14
2022-11-29T12:33:11.500Z,16
2022-11-29T12:34:11.488Z,14
2022-11-29T12:35:17.411Z,15
2022-11-29T12:36:11.492Z,13
2022-11-29T12:37:11.496Z,13
2022-11-29T12:38:11.515Z,14
2022-11-29T12:39:11.511Z,14
2022-11-29T12:40:11.487Z,15
2022-11-29T12:41:11.501Z,15
2022-11-29T12:42:11.491Z,14
2022-11-29T12:43:11.479Z,14
2022-11-29T12:44:11.486Z,13
2022-11-29T12:45:11.482Z,14
2022-11-29T12:46:11.579Z,13
2022-11-29T12:47:35.172Z,15
2022-11-29T12:48:11.505Z,15
2022-11-29T12:49:11.500Z,14
2022-11-29T12:50:11.492Z,14
2022-11-29T12:51:11.495Z,14
2022-11-29T12:52:11.490Z,14
2022-11-29T12:53:11.498Z,13
2022-11-29T12:54:11.493Z,15
2022-11-29T12:55:11.497Z,16
2022-11-29T12:56:11.504Z,13
2022-11-29T12:57:11.501Z,14
2022-11-29T12:58:11.545Z,15
2022-11-29T12:59:11.489Z,15
2022-11-29T13:00:11.500Z,13
2022-11-29T13:01:11.502Z,14
2022-11-29T13:02:11.487Z,15
2022-11-29T13:03:11.586Z,14
2022-11-29T13:04:11.487Z,15
2022-11-29T13:05:11.495Z,13
2022-11-29T13:06:11.484Z,14
2022-11-29T13:07:11.491Z,12
2022-11-29T13:08:11.493Z,13
2022-11-29T13:09:11.526Z,14
2022-11-29T13:10:17.711Z,13
2022-11-29T13:11:11.508Z,14
2022-11-29T13:12:11.510Z,14
2022-11-29T13:13:11.493Z,14
2022-11-29T13:14:40.805Z,14
2022-11-29T13:15:11.500Z,15
2022-11-29T13:16:14.713Z,15
2022-11-29T13:17:11.493Z,14
2022-11-29T13:18:11.508Z,14
2022-11-29T13:20:11.519Z,14
2022-11-29T13:21:11.515Z,13
2022-11-29T13:22:11.523Z,15
2022-11-29T13:23:11.492Z,13
2022-11-29T13:24:11.502Z,15
2022-11-29T13:25:11.510Z,14
2022-11-29T13:26:11.549Z,14
2022-11-29T13:27:11.563Z,15
2022-11-29T13:28:11.543Z,15
2022-11-29T13:29:11.496Z,14
2022-11-29T13:30:11.525Z,14
2022-11-29T13:31:11.594Z,14
2022-11-29T13:32:14.627Z,13
2022-11-29T13:33:11.522Z,15
2022-11-29T13:34:11.518Z,14
2022-11-29T13:35:11.516Z,13
2022-11-29T13:36:11.509Z,14
2022-11-29T13:37:11.520Z,14
2022-11-29T13:38:11.525Z,14
2022-11-29T13:39:11.501Z,15
2022-11-29T13:40:11.519Z,14
2022-11-29T13:41:11.519Z,13
2022-11-29T13:43:11.499Z,13
2022-11-29T13:44:11.540Z,13
2022-11-29T13:45:11.510Z,15
2022-11-29T13:46:11.544Z,14
2022-11-29T13:47:11.507Z,14
2022-11-29T13:48:11.503Z,14
2022-11-29T13:49:11.541Z,13
2022-11-29T13:50:11.512Z,13
2022-11-29T13:51:11.499Z,13
2022-11-29T13:52:11.541Z,14
2022-11-29T13:53:11.505Z,14
2022-11-29T13:54:11.498Z,14
2022-11-29T13:55:11.538Z,13
2022-11-29T13:56:11.510Z,15
2022-11-29T13:57:11.512Z,14
2022-11-29T13:58:19.001Z,13
2022-11-29T13:59:11.504Z,12
2022-11-29T14:00:11.505Z,13
2022-11-29T14:01:11.510Z,12
2022-11-29T14:02:11.538Z,13
2022-11-29T14:03:11.562Z,13
2022-11-29T14:04:11.517Z,13
2022-11-29T14:05:11.518Z,14
2022-11-29T14:06:11.505Z,13
2022-11-29T14:07:11.512Z,14
2022-11-29T14:08:15.221Z,12
2022-11-29T14:09:19.026Z,12
2022-11-29T14:10:11.527Z,13
2022-11-29T14:11:11.599Z,13
2022-11-29T14:12:11.526Z,13
2022-11-29T14:13:11.528Z,12
2022-11-29T14:14:11.520Z,11
2022-11-29T14:15:11.528Z,12
2022-11-29T14:16:11.587Z,11
2022-11-29T14:17:11.526Z,11
2022-11-29T14:18:11.570Z,11
2022-11-29T14:19:11.529Z,12
2022-11-29T14:20:11.513Z,11
2022-11-29T14:21:11.531Z,11
2022-11-29T14:22:11.528Z,10
2022-11-29T14:23:11.513Z,11
2022-11-29T14:24:11.512Z,10
2022-11-29T14:25:35.024Z,11
2022-11-29T14:26:11.522Z,10
2022-11-29T14:27:11.542Z,10
2022-11-29T14:28:11.525Z,11
2022-11-29T14:29:11.528Z,11
2022-11-29T14:30:11.532Z,11
2022-11-29T14:31:11.620Z,10
2022-11-29T14:32:11.525Z,12
2022-11-29T14:33:11.531Z,12
2022-11-29T14:34:11.541Z,11
2022-11-29T14:35:11.527Z,11
2022-11-29T14:36:11.521Z,12
2022-11-29T14:37:11.525Z,12
2022-11-29T14:38:11.537Z,12
2022-11-29T14:39:11.513Z,10